Flight Track Log - Related Links

Times and Time Zones

All times are in EDT time to prevent confusion due to time zone crossing. See the N675MC flight status page for this flight to view local times or setup timezone preferences in your user account.

Time Position Orientation Groundspeed Altitude Reporting Facility
EDT Latitude Longitude Course Direction KTS MPH feet Rate Location/Type
Fri 04:38:10 PM 41.9833 -87.8667 143° Southeast 172 198 1,500  Level Chicago TRACON
Fri 04:39:10 PM 41.9333 -87.8167 143° Southeast 238 274 3,500 1,826 Climbing Chicago TRACON
Fri 04:40:05 PM 41.9000 -87.7667 132° Southeast 258 297 5,000 1,722 Climbing Chicago TRACON
Fri 04:41:05 PM 41.8167 -87.7833 188° South 287 330 6,800 2,000 Climbing Chicago TRACON
Fri 04:42:05 PM 41.7500 -87.8500 217° Southwest 297 342 9,000 1,800 Climbing Chicago TRACON
Fri 04:43:35 PM 41.6325 -87.8361 175° South 315 362 11,300 1,224 Climbing Chicago Center
Fri 04:44:37 PM 41.5386 -87.8244 175° South 335 386 12,100 629 Climbing Chicago Center
Fri 04:45:39 PM 41.4292 -87.7992 170° South 390 449 12,600 1,258 Climbing Chicago Center
Fri 04:46:41 PM 41.3131 -87.7669 168° South 419 482 14,700 1,742 Climbing Chicago Center
Fri 04:47:43 PM 41.1975 -87.7317 167° South 422 486 16,200 1,694 Climbing Chicago Center
Fri 04:48:45 PM 41.0558 -87.6869 167° South 435 501 18,200 1,645 Climbing Chicago Center
Fri 04:49:47 PM 40.9344 -87.6464 166° South 445 512 19,600 1,403 Climbing Chicago Center
Fri 04:50:49 PM 40.8111 -87.6036 165° South 454 522 21,100 1,355 Climbing Chicago Center
Fri 04:51:51 PM 40.6861 -87.5603 165° South 463 533 22,400 1,355 Climbing Chicago Center
Fri 04:52:53 PM 40.5594 -87.5158 165° South 470 541 23,900 1,258 Climbing Chicago Center
Fri 04:53:55 PM 40.4303 -87.4700 165° South 478 550 25,000 1,113 Climbing Chicago Center
Fri 04:54:57 PM 40.2717 -87.4194 166° South 493 567 26,200 1,355 Climbing Chicago Center
Fri 04:55:59 PM 40.1411 -87.3717 164° South 493 567 27,800 1,361 Climbing Chicago Center
Fri 04:56:34 PM 40.0644 -87.3450 165° South 483 556 28,400 1,113 Climbing Indianapolis Center
Fri 04:57:36 PM 39.9356 -87.3003 165° South 483 556 29,600 1,016 Climbing Indianapolis Center
Fri 04:58:38 PM 39.8067 -87.2567 165° South 482 555 30,500 871 Climbing Indianapolis Center
Fri 04:59:40 PM 39.6786 -87.2117 165° South 480 552 31,400 919 Climbing Indianapolis Center
Fri 05:00:42 PM 39.5264 -87.1594 165° South 476 548 32,400 871 Climbing Indianapolis Center
Fri 05:01:44 PM 39.4075 -87.0947 157° South 470 541 33,200 677 Climbing Indianapolis Center
Fri 05:02:46 PM 39.2889 -87.0244 155° Southeast 471 542 33,800 581 Climbing Indianapolis Center
Fri 05:03:48 PM 39.1717 -86.9517 154° Southeast 471 542 34,400 435 Climbing Indianapolis Center
Fri 05:04:50 PM 39.0572 -86.8786 154° Southeast 470 541 34,700 290 Climbing Indianapolis Center
Fri 05:05:52 PM 38.9131 -86.7939 155° Southeast 470 541 35,000 145 Climbing Indianapolis Center
Fri 05:06:54 PM 38.7872 -86.7297 158° South 480 552 35,000  Level Indianapolis Center
Fri 05:07:57 PM 38.6586 -86.6694 160° South 486 559 35,000  Level Indianapolis Center
Fri 05:08:59 PM 38.5275 -86.6192 163° South 486 559 35,000  Level Indianapolis Center
Fri 05:10:01 PM 38.3947 -86.5803 167° South 482 555 35,000  Level Indianapolis Center
Fri 05:11:03 PM 38.2633 -86.5436 168° South 478 550 35,000  Level Indianapolis Center
Fri 05:12:05 PM 38.1328 -86.5086 168° South 474 545 35,000  Level Indianapolis Center
Fri 05:13:07 PM 37.9994 -86.4889 173° South 475 547 35,000  Level Indianapolis Center
Fri 05:14:09 PM 37.8675 -86.4811 177° South 472 543 35,000  Level Indianapolis Center
Fri 05:15:11 PM 37.7236 -86.4867 182° South 469 540 35,000  Level Indianapolis Center
Fri 05:16:13 PM 37.5911 -86.4889 181° South 471 542 35,000  Level Indianapolis Center
Fri 05:17:15 PM 37.4589 -86.4931 181° South 470 541 35,000  Level Indianapolis Center
Fri 05:18:17 PM 37.3058 -86.4931 180° South 468 539 35,000  Level Indianapolis Center
Fri 05:19:19 PM 37.1725 -86.4836 177° South 474 545 35,000  Level Indianapolis Center
Fri 05:20:05 PM 37.0836 -86.4772 177° South 475 547 35,000  Level Memphis Center
Fri 05:21:05 PM 36.9536 -86.4500 171° South 475 547 35,000 -100 Level Memphis Center
Fri 05:22:05 PM 36.8236 -86.4250 171° South 475 547 34,800 -500 Descending Memphis Center
Fri 05:23:05 PM 36.6881 -86.4189 178° South 486 559 34,000 -850 Descending Memphis Center
Fri 05:24:05 PM 36.5400 -86.4183 180° South 486 559 33,100 -500 Descending Memphis Center
Fri 05:25:05 PM 36.4047 -86.4275 183° South 497 572 33,000 -50 Descending Memphis Center
Fri 05:26:05 PM 36.2883 -86.5053 208° Southwest 468 539 33,000  Level Memphis Center
Fri 05:27:05 PM 36.1631 -86.5600 199° South 480 552 33,000  Level Memphis Center
Fri 05:28:05 PM 36.0347 -86.5247 167° South 466 536 33,000  Level Memphis Center
Fri 05:29:04 PM 35.9300 -86.4478 149° Southeast 459 528 33,000  Level Memphis Center
Fri 05:32:09 PM 35.5814 -86.1453 145° Southeast 491 565 33,000  Level Atlanta Center
Fri 05:33:09 PM 35.4639 -86.0658 151° Southeast 484 557 33,000  Level Atlanta Center
Fri 05:34:09 PM 35.3283 -86.0522 175° South 469 540 33,000 -250 Level Atlanta Center
Fri 05:35:09 PM 35.2094 -86.0519 180° South 474 545 32,500 -1,000 Descending Atlanta Center
Fri 05:36:09 PM 35.0617 -86.0358 175° South 480 552 31,000 -1,300 Descending Atlanta Center
Fri 05:37:09 PM 34.9483 -85.9392 145° Southeast 479 551 29,900 -1,050 Descending Atlanta Center
Fri 05:38:09 PM 34.8561 -85.8233 134° Southeast 467 537 28,900 -1,100 Descending Atlanta Center
Fri 05:39:09 PM 34.7575 -85.7200 139° Southeast 472 543 27,700 -1,000 Descending Atlanta Center
Fri 05:40:09 PM 34.6628 -85.6172 138° Southeast 462 532 26,900 -800 Descending Atlanta Center
Fri 05:41:09 PM 34.5700 -85.5219 140° Southeast 449 517 26,100 -850 Descending Atlanta Center
Fri 05:42:09 PM 34.4731 -85.4272 141° Southeast 449 517 25,200 -1,100 Descending Atlanta Center
Fri 05:43:09 PM 34.3992 -85.3203 130° Southeast 431 496 23,900 -1,550 Descending Atlanta Center
Fri 05:44:09 PM 34.3311 -85.2361 134° Southeast 405 466 22,100 -3,050 Descending Atlanta Center
Fri 05:45:09 PM 34.2378 -85.1644 148° Southeast 394 453 17,800 -3,750 Descending Atlanta Center
Fri 05:46:09 PM 34.1444 -85.1156 157° South 381 438 14,600 -1,900 Descending Atlanta Center
Fri 05:47:09 PM 34.0722 -85.0194 132° Southeast 369 425 14,000 -750 Descending Atlanta Center
Fri 05:48:09 PM 34.0061 -84.9058 125° Southeast 396 456 13,100 -750 Descending Atlanta Center
Fri 05:49:09 PM 33.9169 -84.8147 140° Southeast 406 467 12,500 -500 Descending Atlanta Center
Fri 05:50:09 PM 33.8425 -84.7217 134° Southeast 401 461 12,100 -300 Descending Atlanta Center
Fri 05:51:09 PM 33.7864 -84.6411 130° Southeast 342 394 11,900 -100 Descending Atlanta Center
Fri 05:52:09 PM 33.7367 -84.5708 130° Southeast 287 330 11,900 -938 Level Atlanta Center
Fri 05:53:17 PM 33.7333 -84.4667 92° East 275 316 9,900 -1,574 Descending Atlanta TRACON
Fri 05:54:11 PM 33.7333 -84.3833 90° East 269 310 8,700 -1,300 Descending Atlanta TRACON
Fri 05:55:17 PM 33.7333 -84.2833 90° East 252 290 7,300 -1,250 Descending Atlanta TRACON
Fri 05:56:11 PM 33.7500 -84.2167 73° East 245 282 6,200 -1,211 Descending Atlanta TRACON
Fri 05:57:11 PM 33.7000 -84.1667 140° Southeast 250 288 5,000 -900 Descending Atlanta TRACON
Fri 05:58:11 PM 33.6667 -84.2000 220° Southwest 224 258 4,400 -800 Descending Atlanta TRACON
Fri 05:59:11 PM 33.6500 -84.2667 253° West 189 217 3,400 -1,050 Descending Atlanta TRACON
Fri 06:00:11 PM 33.6500 -84.3333 270° West 186 214 2,300 -1,000 Descending Atlanta TRACON
Fri 06:01:05 PM 33.6500 -84.3667 270° West 148 170 1,500 -889 Descending Atlanta TRACON
Fri 06:03:00 PM 33.6333 -84.4167 North  Level FlightAware Approximate
Fri 06:10:00 PM 33.6367 -84.4279 North  Level Estimated
Fri 06:11:00 PM 33.6367 -84.4279 North  Level Estimated
Fri 06:12:00 PM 33.6367 -84.4279 North  Level Estimated
Fri 06:13:00 PM 33.6367 -84.4279 North  Level Estimated
Fri 06:14:00 PM 33.6367 -84.4279 North  Level Estimated

Login

Don't have an account? Register now (free) for customized features, flight alerts, and more!